createdAt,value
2022-10-17T00:00:45.252Z,101748.66
2022-10-17T00:04:46.641Z,101750.22
2022-10-17T00:08:48.033Z,101741.66
2022-10-17T00:12:50.922Z,101745.41
2022-10-17T00:16:52.273Z,101734.88
2022-10-17T00:20:53.715Z,101729.00
2022-10-17T00:24:55.099Z,101731.41
2022-10-17T00:28:56.995Z,101740.97
2022-10-17T00:32:58.422Z,101754.16
2022-10-17T00:36:59.817Z,101740.28
2022-10-17T00:41:01.637Z,101724.66
2022-10-17T00:45:20.899Z,101734.53
2022-10-17T00:49:26.097Z,101732.81
2022-10-17T00:53:27.615Z,101742.75
2022-10-17T00:57:31.742Z,101737.31
2022-10-17T01:01:33.825Z,101737.34
2022-10-17T01:05:35.919Z,101740.31
2022-10-17T01:09:38.720Z,101746.88
2022-10-17T01:13:50.210Z,101729.69
2022-10-17T01:18:10.258Z,101721.13
2022-10-17T01:22:27.252Z,101731.69
2022-10-17T01:26:31.948Z,101724.53
2022-10-17T01:31:03.111Z,101722.47
2022-10-17T01:35:18.884Z,101715.06
2022-10-17T01:39:43.938Z,101711.34
2022-10-17T01:43:59.318Z,101712.78
2022-10-17T01:48:07.254Z,101709.66
2022-10-17T01:52:24.818Z,101719.91
2022-10-17T01:56:29.813Z,101708.03
2022-10-17T02:00:32.543Z,101710.91
2022-10-17T02:04:35.140Z,101712.25
2022-10-17T02:08:48.393Z,101709.06
2022-10-17T02:12:58.959Z,101721.25
2022-10-17T02:17:02.935Z,101720.81
2022-10-17T02:21:13.229Z,101712.91
2022-10-17T02:25:21.009Z,101712.44
2022-10-17T02:29:38.885Z,101711.91
2022-10-17T02:33:46.290Z,101715.13
2022-10-17T02:37:48.726Z,101707.22
2022-10-17T02:41:52.545Z,101706.75
2022-10-17T02:45:55.003Z,101704.56
2022-10-17T02:49:58.762Z,101701.53
2022-10-17T02:54:19.807Z,101698.34
2022-10-17T02:58:25.465Z,101699.75
2022-10-17T03:02:27.211Z,101697.75
2022-10-17T03:06:28.765Z,101703.44
2022-10-17T03:10:30.166Z,101712.66
2022-10-17T03:14:31.580Z,101712.69
2022-10-17T03:18:32.975Z,101712.31
2022-10-17T03:22:34.502Z,101705.00
2022-10-17T03:26:35.984Z,101703.19
2022-10-17T03:30:38.645Z,101697.56
2022-10-17T03:34:40.012Z,101693.59
2022-10-17T03:38:42.491Z,101692.09
2022-10-17T03:42:44.069Z,101697.59
2022-10-17T03:46:45.607Z,101683.28
2022-10-17T03:50:47.072Z,101689.44
2022-10-17T03:54:50.371Z,101689.69
2022-10-17T03:58:52.151Z,101690.88
2022-10-17T04:02:53.755Z,101689.75
2022-10-17T04:06:55.183Z,101685.16
2022-10-17T04:11:00.946Z,101682.13
2022-10-17T04:15:02.351Z,101674.72
2022-10-17T04:19:04.129Z,101680.59
2022-10-17T04:23:05.530Z,101668.97
2022-10-17T04:27:07.012Z,101675.91
2022-10-17T04:31:13.092Z,101676.53
2022-10-17T04:35:14.570Z,101676.34
2022-10-17T04:39:15.923Z,101681.22
2022-10-17T04:43:17.389Z,101676.25
2022-10-17T04:47:18.763Z,101671.03
2022-10-17T04:51:23.157Z,101674.44
2022-10-17T04:55:27.525Z,101672.91
2022-10-17T04:59:28.949Z,101686.59
2022-10-17T05:03:30.330Z,101677.16
2022-10-17T05:07:31.753Z,101685.06
2022-10-17T05:11:33.200Z,101676.97
2022-10-17T05:15:35.277Z,101685.22
2022-10-17T05:19:36.721Z,101681.53
2022-10-17T05:23:38.100Z,101687.72
2022-10-17T05:27:39.498Z,101683.66
2022-10-17T05:31:40.889Z,101685.38
2022-10-17T05:35:42.323Z,101684.84
2022-10-17T05:39:46.756Z,101680.09
2022-10-17T05:43:50.774Z,101680.81
2022-10-17T05:47:52.170Z,101683.78
2022-10-17T05:51:53.603Z,101683.94
2022-10-17T05:55:56.611Z,101688.91
2022-10-17T05:59:58.090Z,101698.16
2022-10-17T06:03:59.507Z,101704.38
2022-10-17T06:08:02.105Z,101708.44
2022-10-17T06:12:03.733Z,101713.38
2022-10-17T06:16:05.959Z,101721.75
2022-10-17T06:20:08.049Z,101720.41
2022-10-17T06:24:09.497Z,101725.88
2022-10-17T06:28:11.393Z,101733.25
2022-10-17T06:32:15.070Z,101741.78
2022-10-17T06:36:16.781Z,101742.34
2022-10-17T06:40:18.384Z,101741.09
2022-10-17T06:44:19.762Z,101751.69
2022-10-17T06:48:21.187Z,101753.13
2022-10-17T06:52:22.871Z,101753.59
2022-10-17T06:56:24.389Z,101750.84
2022-10-17T07:00:26.790Z,101756.81
2022-10-17T07:04:28.433Z,101749.25
2022-10-17T07:08:29.868Z,101749.88
2022-10-17T07:12:31.299Z,101754.09
2022-10-17T07:16:33.030Z,101751.28
2022-10-17T07:20:36.542Z,101758.56
2022-10-17T07:24:38.006Z,101772.69
2022-10-17T07:28:42.105Z,101767.56
2022-10-17T07:32:44.170Z,101769.16
2022-10-17T07:36:45.825Z,101769.41
2022-10-17T07:40:54.575Z,101762.78
2022-10-17T07:44:56.054Z,101768.31
2022-10-17T07:48:57.454Z,101771.16
2022-10-17T07:52:58.845Z,101773.44
2022-10-17T07:57:00.415Z,101769.88
2022-10-17T08:01:10.682Z,101776.69
2022-10-17T08:05:15.289Z,101779.75
2022-10-17T08:09:17.008Z,101773.28
2022-10-17T08:13:18.446Z,101778.22
2022-10-17T08:17:19.841Z,101778.84
2022-10-17T08:21:21.295Z,101769.88
2022-10-17T08:25:23.288Z,101771.75
2022-10-17T08:29:25.055Z,101775.94
2022-10-17T08:33:26.436Z,101778.94
2022-10-17T08:37:28.220Z,101774.34
2022-10-17T08:41:44.719Z,101766.88
2022-10-17T08:45:52.398Z,101765.22
2022-10-17T08:50:02.628Z,101756.81
2022-10-17T08:54:16.591Z,101762.47
2022-10-17T08:58:20.887Z,101763.81
2022-10-17T09:02:40.977Z,101765.56
2022-10-17T09:06:56.048Z,101764.41
2022-10-17T09:11:21.891Z,101771.25
2022-10-17T09:15:40.658Z,101763.25
2022-10-17T09:20:09.872Z,101775.75
2022-10-17T09:24:22.512Z,101778.94
2022-10-17T09:28:34.805Z,101767.31
2022-10-17T09:32:37.542Z,101770.53
2022-10-17T09:36:40.629Z,101769.31
2022-10-17T09:40:42.177Z,101763.72
2022-10-17T09:45:12.911Z,101758.38
2022-10-17T09:49:29.183Z,101770.84
2022-10-17T09:53:36.046Z,101765.97
2022-10-17T09:57:58.619Z,101753.44
2022-10-17T10:02:20.747Z,101751.75
2022-10-17T10:06:22.170Z,101750.34
2022-10-17T10:10:27.909Z,101747.25
2022-10-17T10:14:35.768Z,101755.72
2022-10-17T10:18:37.246Z,101762.78
2022-10-17T10:22:38.749Z,101759.41
2022-10-17T10:26:48.745Z,101757.53
2022-10-17T10:30:52.308Z,101758.88
2022-10-17T10:35:08.705Z,101763.41
2022-10-17T10:39:25.601Z,101752.03
2022-10-17T10:43:37.811Z,101749.72
2022-10-17T10:47:39.405Z,101755.72
2022-10-17T10:51:45.883Z,101757.00
2022-10-17T10:55:54.903Z,101745.47
2022-10-17T11:00:04.520Z,101748.97
2022-10-17T11:04:31.257Z,101749.66
2022-10-17T11:08:40.680Z,101744.72
2022-10-17T11:13:13.833Z,101732.84
2022-10-17T11:17:35.019Z,101734.31
2022-10-17T11:21:47.011Z,101714.16
2022-10-17T11:25:51.237Z,101716.94
2022-10-17T11:29:52.685Z,101711.81
2022-10-17T11:34:04.702Z,101711.47
2022-10-17T11:38:18.564Z,101709.38
2022-10-17T11:42:27.418Z,101713.38
2022-10-17T11:46:29.844Z,101714.53
2022-10-17T11:55:06.456Z,101713.31
2022-10-17T11:59:45.575Z,101716.94
2022-10-17T12:04:12.671Z,101708.47
2022-10-17T12:08:29.138Z,101716.31
2022-10-17T12:12:34.836Z,101708.56
2022-10-17T12:16:38.604Z,101711.03
2022-10-17T12:20:40.425Z,101705.91
2022-10-17T12:24:54.706Z,101707.22
2022-10-17T12:28:57.426Z,101697.41
2022-10-17T12:33:07.792Z,101708.75
2022-10-17T12:37:11.768Z,101704.06
2022-10-17T12:41:13.273Z,101692.63
2022-10-17T12:45:46.913Z,101694.97
2022-10-17T12:49:55.746Z,101701.69
2022-10-17T12:54:16.277Z,101696.00
2022-10-17T12:58:17.823Z,101700.06
2022-10-17T13:02:22.077Z,101690.25
2022-10-17T13:06:29.574Z,101684.63
2022-10-17T13:10:43.006Z,101684.75
2022-10-17T13:14:47.075Z,101670.75
2022-10-17T13:18:53.121Z,101672.28
2022-10-17T13:22:57.131Z,101684.75
2022-10-17T13:26:59.404Z,101680.25
2022-10-17T13:31:00.786Z,101677.59
2022-10-17T13:35:14.278Z,101682.06
2022-10-17T13:39:23.165Z,101679.16
2022-10-17T13:43:31.165Z,101683.69
2022-10-17T13:47:36.681Z,101678.88
2022-10-17T13:51:43.872Z,101672.63
2022-10-17T13:56:15.823Z,101677.69
2022-10-17T14:00:21.635Z,101691.59
2022-10-17T14:04:23.116Z,101687.91
2022-10-17T14:08:24.928Z,101693.09
2022-10-17T14:12:26.597Z,101685.47
2022-10-17T14:16:38.865Z,101681.97
2022-10-17T14:21:19.782Z,101691.31
2022-10-17T14:25:04.464Z,101686.66
2022-10-17T14:29:17.221Z,101684.38
2022-10-17T14:33:30.894Z,101683.81
2022-10-17T14:37:47.650Z,101691.56
2022-10-17T14:41:49.866Z,101705.00
2022-10-17T14:45:51.861Z,101704.06
2022-10-17T14:50:23.656Z,101702.84
2022-10-17T14:54:27.440Z,101688.09
2022-10-17T14:58:30.927Z,101693.63
2022-10-17T15:02:32.630Z,101701.00
2022-10-17T15:06:34.982Z,101696.13
2022-10-17T15:10:37.593Z,101698.78
2022-10-17T15:14:38.975Z,101705.91
2022-10-17T15:18:40.353Z,101700.00
2022-10-17T15:22:41.988Z,101698.44
2022-10-17T15:26:43.616Z,101703.09
2022-10-17T15:30:45.198Z,101706.75
2022-10-17T15:34:46.774Z,101708.50
2022-10-17T15:38:49.727Z,101708.56
2022-10-17T15:42:51.579Z,101706.28
2022-10-17T15:46:55.414Z,101705.66
2022-10-17T15:50:56.896Z,101710.53
2022-10-17T15:55:00.948Z,101702.78
2022-10-17T15:59:12.970Z,101716.34
2022-10-17T16:03:14.579Z,101723.84
2022-10-17T16:07:18.349Z,101709.31
2022-10-17T16:11:32.388Z,101708.34
2022-10-17T16:15:34.191Z,101709.59
2022-10-17T16:19:35.650Z,101712.56
2022-10-17T16:23:37.148Z,101715.06
2022-10-17T16:27:39.314Z,101710.97
2022-10-17T16:31:43.140Z,101713.34
2022-10-17T16:35:46.614Z,101726.69
2022-10-17T16:39:52.274Z,101714.69
2022-10-17T16:43:56.624Z,101724.59
2022-10-17T16:47:58.127Z,101717.78
2022-10-17T16:51:59.546Z,101725.75
2022-10-17T16:56:04.871Z,101717.03
2022-10-17T17:00:07.286Z,101720.75
2022-10-17T17:04:09.337Z,101732.19
2022-10-17T17:08:12.610Z,101732.63
2022-10-17T17:12:14.249Z,101733.03
2022-10-17T17:16:18.736Z,101731.84
2022-10-17T17:20:20.220Z,101724.69
2022-10-17T17:24:21.672Z,101716.97
2022-10-17T17:28:23.100Z,101732.69
2022-10-17T17:32:24.633Z,101727.09
2022-10-17T17:36:28.609Z,101741.16
2022-10-17T17:40:30.000Z,101737.53
2022-10-17T17:44:31.904Z,101739.56
2022-10-17T17:48:33.596Z,101738.75
2022-10-17T17:52:35.328Z,101741.53
2022-10-17T17:56:36.919Z,101749.16
2022-10-17T18:00:40.457Z,101751.13
2022-10-17T18:04:41.916Z,101760.38
2022-10-17T18:08:45.736Z,101763.16
2022-10-17T18:12:47.163Z,101761.91
2022-10-17T18:16:48.546Z,101756.03
2022-10-17T18:20:49.936Z,101759.34
2022-10-17T18:24:51.375Z,101764.19
2022-10-17T18:28:52.884Z,101767.59
2022-10-17T18:32:54.238Z,101771.41
2022-10-17T18:36:55.763Z,101769.88
2022-10-17T18:41:05.593Z,101777.91
2022-10-17T18:45:07.812Z,101773.50
2022-10-17T18:49:11.427Z,101775.47
2022-10-17T18:53:12.796Z,101785.41
2022-10-17T18:57:14.240Z,101783.59
2022-10-17T19:01:21.753Z,101793.72
2022-10-17T19:05:23.223Z,101804.72
2022-10-17T19:09:24.602Z,101802.59
2022-10-17T19:13:25.983Z,101810.03
2022-10-17T19:17:28.922Z,101817.47
2022-10-17T19:21:31.651Z,101818.78
2022-10-17T19:25:33.767Z,101824.56
2022-10-17T19:29:35.808Z,101820.09
2022-10-17T19:33:37.752Z,101816.63
2022-10-17T19:37:39.653Z,101812.97
2022-10-17T19:41:42.650Z,101825.34
2022-10-17T19:45:44.631Z,101813.13
2022-10-17T19:49:49.918Z,101824.34
2022-10-17T19:53:53.934Z,101822.47
2022-10-17T19:57:55.728Z,101830.78
2022-10-17T20:01:57.646Z,101828.72
2022-10-17T20:05:59.078Z,101828.41
2022-10-17T20:10:00.580Z,101824.44
2022-10-17T20:14:02.048Z,101830.91
2022-10-17T20:18:04.859Z,101833.28
2022-10-17T20:22:06.242Z,101832.75
2022-10-17T20:26:26.344Z,101837.19
2022-10-17T20:30:33.952Z,101835.06
2022-10-17T20:34:36.022Z,101846.00
2022-10-17T20:38:38.077Z,101847.41
2022-10-17T20:42:40.050Z,101849.50
2022-10-17T20:46:48.813Z,101859.88
2022-10-17T20:50:58.925Z,101862.22
2022-10-17T20:55:00.305Z,101884.88
2022-10-17T20:59:06.990Z,101876.97
2022-10-17T21:03:09.386Z,101875.88
2022-10-17T21:07:10.784Z,101874.47
2022-10-17T21:11:14.286Z,101874.81
2022-10-17T21:15:15.741Z,101878.38
2022-10-17T21:19:17.183Z,101885.81
2022-10-17T21:23:18.560Z,101886.72
2022-10-17T21:27:20.168Z,101890.63
2022-10-17T21:31:26.998Z,101895.72
2022-10-17T21:35:28.390Z,101893.13
2022-10-17T21:39:29.853Z,101888.22
2022-10-17T21:43:31.906Z,101884.22
2022-10-17T21:47:34.525Z,101888.25
2022-10-17T21:51:37.651Z,101897.16
2022-10-17T21:55:39.088Z,101897.19
2022-10-17T21:59:40.447Z,101908.50
2022-10-17T22:03:46.773Z,101905.59
2022-10-17T22:07:48.435Z,101915.84
2022-10-17T22:11:52.307Z,101918.16
2022-10-17T22:15:59.395Z,101921.47
2022-10-17T22:20:00.870Z,101931.91
2022-10-17T22:24:05.366Z,101925.97
2022-10-17T22:28:06.844Z,101931.69
2022-10-17T22:32:08.202Z,101932.34
2022-10-17T22:36:10.159Z,101933.88
2022-10-17T22:40:11.928Z,101931.97
2022-10-17T22:44:13.345Z,101938.56
2022-10-17T22:48:14.725Z,101933.59
2022-10-17T22:52:16.113Z,101931.47
2022-10-17T22:56:20.643Z,101931.47
2022-10-17T23:00:22.109Z,101935.31
2022-10-17T23:04:23.547Z,101936.72
2022-10-17T23:08:25.999Z,101933.53
2022-10-17T23:12:27.534Z,101940.81
2022-10-17T23:16:29.054Z,101939.88
2022-10-17T23:20:31.022Z,101927.97
2022-10-17T23:24:33.217Z,101934.00
2022-10-17T23:28:35.581Z,101934.41
2022-10-17T23:32:38.512Z,101943.50
2022-10-17T23:36:39.984Z,101939.81
2022-10-17T23:40:41.988Z,101949.09
2022-10-17T23:44:43.379Z,101942.63
2022-10-17T23:48:44.769Z,101946.06
2022-10-17T23:52:46.199Z,101928.63
2022-10-17T23:56:47.597Z,101942.22
